createdAt,value
2022-09-30T00:02:17.144Z,87.17
2022-09-30T00:04:50.001Z,87.18
2022-09-30T00:07:19.790Z,86.70
2022-09-30T00:09:49.504Z,86.62
2022-09-30T00:12:19.277Z,87.02
2022-09-30T00:14:49.175Z,87.31
2022-09-30T00:17:19.001Z,87.38
2022-09-30T00:19:51.373Z,87.32
2022-09-30T00:22:21.117Z,87.99
2022-09-30T00:24:51.064Z,87.95
2022-09-30T00:27:21.146Z,88.09
2022-09-30T00:29:51.065Z,87.68
2022-09-30T00:32:20.864Z,87.71
2022-09-30T00:34:53.220Z,87.38
2022-09-30T00:37:22.987Z,88.07
2022-09-30T00:39:52.800Z,87.84
2022-09-30T00:42:22.703Z,88.14
2022-09-30T00:44:56.072Z,87.95
2022-09-30T00:47:38.323Z,87.69
2022-09-30T00:50:18.128Z,87.87
2022-09-30T00:52:53.284Z,88.42
2022-09-30T00:55:35.812Z,87.96
2022-09-30T00:58:08.460Z,88.44
2022-09-30T01:00:38.391Z,88.35
2022-09-30T01:03:09.490Z,88.02
2022-09-30T01:05:41.930Z,88.29
2022-09-30T01:08:11.910Z,88.13
2022-09-30T01:10:41.674Z,87.94
2022-09-30T01:13:11.444Z,87.89
2022-09-30T01:16:16.002Z,87.04
2022-09-30T01:19:03.465Z,87.75
2022-09-30T01:22:02.040Z,87.19
2022-09-30T01:24:43.371Z,87.79
2022-09-30T01:27:32.162Z,87.66
2022-09-30T01:30:10.318Z,88.11
2022-09-30T01:33:13.303Z,87.34
2022-09-30T01:35:57.773Z,87.97
2022-09-30T01:38:32.202Z,88.21
2022-09-30T01:41:08.997Z,87.70
2022-09-30T01:43:47.703Z,87.69
2022-09-30T01:46:25.939Z,87.83
2022-09-30T01:49:03.976Z,87.56
2022-09-30T01:51:41.104Z,87.84
2022-09-30T01:54:18.700Z,88.27
2022-09-30T01:56:52.923Z,88.68
2022-09-30T01:59:28.131Z,88.55
2022-09-30T02:02:02.186Z,88.40
2022-09-30T02:04:40.399Z,88.28
2022-09-30T02:07:16.954Z,88.60
2022-09-30T02:09:52.872Z,89.11
2022-09-30T02:12:27.908Z,89.37
2022-09-30T02:15:04.442Z,89.13
2022-09-30T02:17:40.623Z,89.40
2022-09-30T02:20:18.352Z,90.15
2022-09-30T02:22:52.604Z,90.57
2022-09-30T02:25:26.127Z,90.92
2022-09-30T02:28:00.558Z,91.12
2022-09-30T02:30:30.947Z,91.11
2022-09-30T02:33:05.878Z,91.64
2022-09-30T02:35:41.651Z,91.82
2022-09-30T02:38:17.508Z,91.75
2022-09-30T02:40:52.939Z,91.16
2022-09-30T02:43:24.376Z,91.00
2022-09-30T02:46:05.557Z,91.34
2022-09-30T02:48:46.149Z,91.56
2022-09-30T02:51:24.532Z,91.33
2022-09-30T02:54:04.510Z,90.95
2022-09-30T02:56:44.601Z,90.86
2022-09-30T02:59:14.803Z,91.29
2022-09-30T03:01:46.021Z,91.29
2022-09-30T03:04:18.991Z,90.78
2022-09-30T03:06:51.523Z,90.19
2022-09-30T03:09:21.652Z,89.99
2022-09-30T03:11:52.483Z,89.54
2022-09-30T03:14:46.609Z,88.92
2022-09-30T03:17:30.021Z,89.19
2022-09-30T03:20:15.339Z,89.09
2022-09-30T03:23:05.791Z,89.07
2022-09-30T03:25:47.333Z,90.07
2022-09-30T03:28:27.775Z,89.82
2022-09-30T03:31:06.703Z,89.69
2022-09-30T03:33:47.211Z,89.55
2022-09-30T03:36:24.031Z,89.52
2022-09-30T03:39:04.676Z,89.06
2022-09-30T03:41:42.258Z,89.14
2022-09-30T03:44:17.544Z,89.45
2022-09-30T03:46:50.961Z,89.49
2022-09-30T03:49:29.462Z,89.11
2022-09-30T03:52:00.227Z,89.53
2022-09-30T03:54:33.387Z,89.15
2022-09-30T03:57:05.315Z,89.04
2022-09-30T03:59:35.052Z,88.42
2022-09-30T04:02:05.424Z,88.28
2022-09-30T04:04:35.234Z,88.22
2022-09-30T04:07:05.038Z,88.39
2022-09-30T04:09:37.461Z,87.49
2022-09-30T04:12:08.391Z,87.20
2022-09-30T04:14:38.687Z,87.32
2022-09-30T04:17:09.199Z,87.75
2022-09-30T04:19:40.411Z,87.88
2022-09-30T04:22:11.062Z,89.45
2022-09-30T04:24:43.813Z,89.98
2022-09-30T04:27:13.535Z,90.33
2022-09-30T04:29:43.264Z,90.00
2022-09-30T04:32:12.995Z,90.84
2022-09-30T04:34:42.740Z,91.28
2022-09-30T04:37:13.880Z,91.54
2022-09-30T04:39:46.608Z,91.77
2022-09-30T04:42:17.414Z,91.55
2022-09-30T04:44:48.184Z,91.85
2022-09-30T04:47:17.905Z,91.99
2022-09-30T04:49:47.616Z,91.68
2022-09-30T04:52:17.325Z,91.06
2022-09-30T04:54:49.619Z,90.67
2022-09-30T04:57:19.294Z,90.60
2022-09-30T04:59:50.065Z,90.50
2022-09-30T05:02:19.984Z,89.90
2022-09-30T05:04:49.822Z,89.64
2022-09-30T05:07:19.538Z,89.34
2022-09-30T05:09:52.210Z,89.09
2022-09-30T05:12:21.970Z,88.80
2022-09-30T05:14:51.696Z,88.77
2022-09-30T05:17:21.404Z,88.56
2022-09-30T05:19:51.242Z,88.26
2022-09-30T05:22:20.975Z,87.78
2022-09-30T05:24:53.314Z,87.14
2022-09-30T05:27:26.613Z,87.20
2022-09-30T05:29:56.305Z,86.81
2022-09-30T05:32:26.066Z,87.09
2022-09-30T05:34:57.168Z,87.53
2022-09-30T05:37:26.936Z,87.82
2022-09-30T05:39:59.333Z,87.47
2022-09-30T05:42:29.168Z,87.92
2022-09-30T05:44:59.002Z,87.97
2022-09-30T05:47:28.824Z,87.74
2022-09-30T05:50:00.715Z,87.79
2022-09-30T05:52:30.802Z,87.54
2022-09-30T05:55:03.692Z,86.83
2022-09-30T05:57:33.536Z,86.92
2022-09-30T06:00:04.909Z,87.47
2022-09-30T06:02:42.222Z,88.73
2022-09-30T06:05:14.816Z,88.67
2022-09-30T06:07:45.649Z,88.04
2022-09-30T06:10:18.101Z,87.64
2022-09-30T06:12:48.263Z,87.80
2022-09-30T06:15:19.181Z,87.23
2022-09-30T06:17:54.314Z,87.62
2022-09-30T06:20:25.650Z,87.61
2022-09-30T06:22:56.418Z,87.27
2022-09-30T06:25:28.754Z,87.56
2022-09-30T06:27:58.881Z,87.83
2022-09-30T06:30:34.903Z,88.18
2022-09-30T06:33:06.346Z,88.09
2022-09-30T06:35:37.183Z,88.83
2022-09-30T06:38:08.012Z,88.73
2022-09-30T06:40:40.705Z,88.92
2022-09-30T06:43:11.538Z,89.47
2022-09-30T06:45:42.419Z,89.36
2022-09-30T06:48:12.753Z,89.96
2022-09-30T06:50:54.450Z,90.95
2022-09-30T06:53:30.219Z,91.27
2022-09-30T06:56:02.654Z,91.49
2022-09-30T06:58:32.415Z,93.14
2022-09-30T07:01:05.392Z,93.81
2022-09-30T07:03:36.587Z,93.65
2022-09-30T07:06:09.013Z,93.48
2022-09-30T07:08:40.134Z,94.39
2022-09-30T07:11:17.189Z,94.81
2022-09-30T07:13:49.280Z,94.85
2022-09-30T07:16:22.726Z,94.90
2022-09-30T07:18:52.590Z,94.78
2022-09-30T07:21:23.374Z,95.07
2022-09-30T07:23:53.338Z,95.42
2022-09-30T07:26:26.721Z,95.95
2022-09-30T07:28:57.296Z,96.21
2022-09-30T07:31:36.609Z,96.41
2022-09-30T07:34:09.743Z,96.62
2022-09-30T07:36:43.853Z,97.28
2022-09-30T07:39:14.655Z,97.80
2022-09-30T07:41:48.054Z,97.98
2022-09-30T07:44:26.234Z,98.47
2022-09-30T07:46:56.078Z,98.59
2022-09-30T07:49:26.952Z,97.89
2022-09-30T07:52:00.013Z,97.53
2022-09-30T07:54:35.310Z,96.61
2022-09-30T07:57:12.205Z,96.71
2022-09-30T07:59:44.233Z,96.79
2022-09-30T08:02:18.487Z,95.92
2022-09-30T08:04:49.909Z,96.48
2022-09-30T08:07:22.882Z,97.78
2022-09-30T08:09:52.757Z,96.38
2022-09-30T08:12:25.122Z,96.68
2022-09-30T08:14:54.895Z,94.59
2022-09-30T08:17:24.630Z,94.10
2022-09-30T08:19:54.342Z,94.61
2022-09-30T08:22:24.102Z,95.18
2022-09-30T08:24:53.884Z,95.23
2022-09-30T08:27:26.276Z,94.24
2022-09-30T08:29:59.196Z,93.78
2022-09-30T08:32:33.204Z,93.34
2022-09-30T08:35:02.980Z,93.45
2022-09-30T08:37:32.794Z,93.41
2022-09-30T08:40:02.892Z,92.83
2022-09-30T08:42:51.709Z,91.74
2022-09-30T08:45:38.887Z,91.29
2022-09-30T08:48:24.505Z,90.63
2022-09-30T08:51:07.559Z,90.10
2022-09-30T08:53:42.751Z,90.31
2022-09-30T08:56:22.106Z,89.70
2022-09-30T08:58:59.771Z,90.13
2022-09-30T09:01:34.907Z,88.41
2022-09-30T09:04:07.268Z,87.15
2022-09-30T09:06:50.409Z,86.00
2022-09-30T09:09:39.402Z,83.72
2022-09-30T09:12:24.928Z,84.22
2022-09-30T09:15:16.435Z,84.37
2022-09-30T09:18:22.645Z,84.75
2022-09-30T09:20:58.492Z,84.09
2022-09-30T09:23:29.244Z,83.31
2022-09-30T09:25:58.975Z,82.69
2022-09-30T09:28:37.474Z,81.86
2022-09-30T09:31:17.241Z,81.86
2022-09-30T09:33:47.362Z,81.45
2022-09-30T09:36:29.235Z,81.14
2022-09-30T09:39:14.557Z,80.52
2022-09-30T09:41:52.594Z,80.41
2022-09-30T09:44:30.721Z,80.43
2022-09-30T09:47:13.939Z,79.86
2022-09-30T09:49:46.167Z,80.51
2022-09-30T09:52:45.937Z,79.69
2022-09-30T09:55:17.330Z,80.21
2022-09-30T09:57:47.732Z,79.88
2022-09-30T10:00:39.790Z,79.64
2022-09-30T10:03:19.686Z,79.50
2022-09-30T10:06:02.264Z,79.18
2022-09-30T10:08:33.751Z,79.23
2022-09-30T10:11:05.574Z,79.22
2022-09-30T10:13:44.387Z,78.00
2022-09-30T10:16:30.867Z,77.41
2022-09-30T10:19:08.633Z,77.53
2022-09-30T10:21:39.329Z,75.64
2022-09-30T10:24:23.238Z,76.36
2022-09-30T10:26:52.953Z,76.75
2022-09-30T10:29:31.971Z,76.23
2022-09-30T10:32:03.113Z,76.58
2022-09-30T10:34:38.967Z,76.20
2022-09-30T10:37:13.806Z,75.13
2022-09-30T10:39:45.741Z,75.64
2022-09-30T10:42:26.521Z,75.06
2022-09-30T10:45:02.151Z,74.70
2022-09-30T10:47:36.939Z,73.38
2022-09-30T10:50:17.176Z,72.58
2022-09-30T10:52:53.659Z,72.23
2022-09-30T10:55:34.008Z,72.25
2022-09-30T10:58:24.167Z,72.45
2022-09-30T11:01:05.868Z,73.25
2022-09-30T11:03:43.267Z,73.82
2022-09-30T11:06:17.813Z,75.35
2022-09-30T11:08:53.919Z,74.15
2022-09-30T11:11:27.570Z,74.03
2022-09-30T11:14:00.145Z,75.23
2022-09-30T11:16:36.229Z,75.21
2022-09-30T11:19:12.603Z,74.03
2022-09-30T11:21:48.894Z,74.07
2022-09-30T11:24:28.647Z,71.54
2022-09-30T11:27:06.002Z,70.19
2022-09-30T11:29:48.856Z,68.01
2022-09-30T11:32:27.748Z,70.08
2022-09-30T11:35:07.372Z,70.61
2022-09-30T11:37:55.277Z,70.15
2022-09-30T11:40:33.828Z,69.57
2022-09-30T11:43:16.009Z,69.71
2022-09-30T11:46:05.091Z,68.12
2022-09-30T11:48:49.986Z,69.78
2022-09-30T11:51:28.559Z,69.11
2022-09-30T11:54:13.909Z,69.64
2022-09-30T11:56:52.115Z,69.57
2022-09-30T11:59:27.501Z,69.15
2022-09-30T12:02:01.249Z,68.43
2022-09-30T12:04:37.305Z,68.65
2022-09-30T12:07:14.093Z,67.79
2022-09-30T12:09:50.743Z,66.89
2022-09-30T12:12:22.281Z,68.05
2022-09-30T12:14:58.195Z,67.23
2022-09-30T12:17:32.637Z,67.42
2022-09-30T12:20:10.068Z,66.13
2022-09-30T12:22:43.965Z,66.40
2022-09-30T12:25:22.865Z,64.12
2022-09-30T12:27:57.829Z,64.99
2022-09-30T12:30:28.442Z,63.80
2022-09-30T12:33:31.034Z,62.90
2022-09-30T12:36:40.092Z,62.95
2022-09-30T12:39:51.405Z,65.03
2022-09-30T12:42:49.384Z,62.42
2022-09-30T12:45:48.937Z,63.43
2022-09-30T12:48:22.600Z,62.59
2022-09-30T12:50:55.167Z,63.12
2022-09-30T12:53:32.067Z,63.08
2022-09-30T12:56:07.068Z,62.92
2022-09-30T12:58:43.965Z,63.12
2022-09-30T13:01:18.334Z,63.98
2022-09-30T13:03:52.666Z,62.96
2022-09-30T13:06:23.845Z,63.05
2022-09-30T13:09:10.519Z,65.06
2022-09-30T13:11:44.958Z,62.08
2022-09-30T13:14:39.583Z,62.99
2022-09-30T13:17:36.613Z,61.43
2022-09-30T13:20:52.390Z,61.57
2022-09-30T13:23:40.237Z,61.93
2022-09-30T13:26:39.083Z,61.51
2022-09-30T13:29:35.679Z,61.56
2022-09-30T13:32:09.414Z,62.46
2022-09-30T13:34:58.417Z,60.78
2022-09-30T13:37:42.456Z,62.57
2022-09-30T13:40:37.861Z,61.71
2022-09-30T13:43:21.228Z,63.27
2022-09-30T13:45:54.649Z,64.61
2022-09-30T13:48:32.332Z,63.68
2022-09-30T13:51:06.457Z,64.15
2022-09-30T13:53:40.428Z,62.56
2022-09-30T13:56:15.884Z,62.31
2022-09-30T13:59:11.015Z,62.42
2022-09-30T14:02:04.538Z,62.91
2022-09-30T14:04:52.594Z,62.64
2022-09-30T14:07:40.102Z,63.17
2022-09-30T14:10:30.970Z,62.94
2022-09-30T14:13:17.231Z,63.21
2022-09-30T14:16:23.634Z,61.69
2022-09-30T14:19:14.049Z,60.82
2022-09-30T14:21:50.295Z,61.08
2022-09-30T14:24:26.440Z,60.93
2022-09-30T14:27:12.868Z,61.48
2022-09-30T14:29:51.540Z,63.47
2022-09-30T14:32:24.050Z,61.99
2022-09-30T14:34:55.227Z,63.46
2022-09-30T14:37:31.165Z,63.37
2022-09-30T14:40:01.760Z,62.17
2022-09-30T14:42:36.106Z,61.64
2022-09-30T14:45:07.980Z,61.62
2022-09-30T14:47:41.418Z,60.81
2022-09-30T14:50:19.680Z,62.12
2022-09-30T14:52:57.148Z,62.39
2022-09-30T14:55:30.718Z,62.09
2022-09-30T14:58:21.734Z,61.30
2022-09-30T15:00:53.793Z,61.65
2022-09-30T15:03:23.689Z,62.84
2022-09-30T15:05:53.743Z,61.61
2022-09-30T15:08:27.041Z,61.41
2022-09-30T15:10:58.693Z,61.55
2022-09-30T15:13:31.916Z,62.23
2022-09-30T15:16:01.892Z,61.83
2022-09-30T15:18:38.041Z,62.38
2022-09-30T15:21:12.612Z,62.86
2022-09-30T15:23:47.953Z,63.00
2022-09-30T15:26:19.154Z,63.16
2022-09-30T15:28:48.975Z,62.46
2022-09-30T15:31:25.325Z,63.35
2022-09-30T15:34:09.811Z,62.01
2022-09-30T15:36:40.423Z,63.62
2022-09-30T15:39:23.197Z,63.78
2022-09-30T15:41:53.993Z,63.82
2022-09-30T15:44:41.936Z,63.92
2022-09-30T15:47:13.062Z,64.65
2022-09-30T15:49:51.270Z,64.29
2022-09-30T15:52:36.393Z,63.89
2022-09-30T15:55:49.653Z,63.95
2022-09-30T15:58:37.885Z,64.58
2022-09-30T16:01:19.771Z,64.50
2022-09-30T16:03:57.092Z,65.35
2022-09-30T16:06:35.217Z,65.68
2022-09-30T16:09:09.878Z,65.12
2022-09-30T16:11:45.617Z,64.93
2022-09-30T16:14:24.123Z,64.50
2022-09-30T16:16:58.330Z,65.00
2022-09-30T16:19:29.516Z,65.04
2022-09-30T16:22:00.592Z,65.11
2022-09-30T16:24:45.170Z,65.71
2022-09-30T16:27:34.048Z,66.15
2022-09-30T16:30:05.058Z,66.14
2022-09-30T16:32:41.223Z,66.36
2022-09-30T16:35:19.199Z,66.57
2022-09-30T16:37:49.623Z,67.08
2022-09-30T16:40:24.735Z,66.66
2022-09-30T16:42:58.748Z,66.77
2022-09-30T16:45:31.016Z,66.51
2022-09-30T16:48:02.931Z,67.11
2022-09-30T16:50:37.773Z,67.64
2022-09-30T16:53:10.636Z,68.48
2022-09-30T16:55:41.513Z,68.44
2022-09-30T16:58:15.915Z,68.00
2022-09-30T17:00:47.078Z,68.56
2022-09-30T17:03:20.115Z,69.13
2022-09-30T17:05:53.392Z,69.26
2022-09-30T17:08:24.709Z,69.53
2022-09-30T17:10:54.529Z,69.58
2022-09-30T17:13:28.710Z,69.20
2022-09-30T17:16:01.895Z,69.74
2022-09-30T17:18:32.793Z,64.63
2022-09-30T17:21:02.853Z,67.22
2022-09-30T17:23:33.709Z,68.20
2022-09-30T17:26:06.918Z,69.01
2022-09-30T17:28:40.897Z,69.29
2022-09-30T17:31:11.519Z,69.83
2022-09-30T17:33:43.733Z,69.88
2022-09-30T17:36:15.330Z,70.04
2022-09-30T17:38:46.300Z,69.96
2022-09-30T17:41:30.084Z,70.05
2022-09-30T17:44:04.391Z,69.66
2022-09-30T17:46:43.825Z,68.87
2022-09-30T17:49:14.085Z,69.45
2022-09-30T17:51:43.861Z,69.53
2022-09-30T17:54:13.607Z,69.27
2022-09-30T17:56:44.529Z,69.88
2022-09-30T17:59:21.540Z,69.54
2022-09-30T18:01:51.661Z,70.14
2022-09-30T18:04:23.366Z,70.33
2022-09-30T18:06:54.318Z,70.83
2022-09-30T18:09:26.678Z,70.62
2022-09-30T18:11:56.377Z,70.67
2022-09-30T18:14:35.306Z,70.95
2022-09-30T18:17:06.112Z,71.43
2022-09-30T18:19:36.242Z,71.51
2022-09-30T18:22:07.028Z,71.79
2022-09-30T18:24:50.255Z,72.14
2022-09-30T18:27:22.682Z,72.25
2022-09-30T18:29:56.403Z,72.54
2022-09-30T18:32:28.340Z,72.64
2022-09-30T18:34:59.516Z,72.43
2022-09-30T18:37:33.305Z,72.29
2022-09-30T18:40:03.557Z,72.63
2022-09-30T18:42:38.157Z,73.11
2022-09-30T18:45:12.653Z,70.54
2022-09-30T18:47:44.072Z,72.22
2022-09-30T18:50:14.592Z,72.76
2022-09-30T18:52:45.324Z,72.94
2022-09-30T18:55:15.050Z,67.71
2022-09-30T18:57:47.920Z,70.18
2022-09-30T19:00:20.829Z,71.74
2022-09-30T19:02:53.890Z,72.49
2022-09-30T19:05:24.774Z,72.89
2022-09-30T19:07:55.940Z,73.40
2022-09-30T19:10:26.329Z,73.56
2022-09-30T19:12:56.132Z,73.44
2022-09-30T19:15:29.545Z,73.32
2022-09-30T19:17:59.954Z,73.65
2022-09-30T19:20:29.892Z,73.92
2022-09-30T19:23:00.321Z,74.01
2022-09-30T19:25:30.153Z,74.16
2022-09-30T19:28:01.857Z,73.86
2022-09-30T19:30:34.496Z,74.00
2022-09-30T19:33:04.280Z,74.42
2022-09-30T19:35:40.302Z,74.77
2022-09-30T19:38:12.300Z,74.86
2022-09-30T19:40:43.464Z,75.59
2022-09-30T19:43:13.217Z,75.22
2022-09-30T19:45:46.640Z,74.71
2022-09-30T19:48:17.460Z,74.73
2022-09-30T19:50:47.189Z,74.79
2022-09-30T19:53:29.346Z,75.05
2022-09-30T19:56:04.807Z,75.00
2022-09-30T19:58:37.318Z,75.00
2022-09-30T20:01:10.829Z,75.05
2022-09-30T20:03:41.141Z,75.27
2022-09-30T20:06:14.580Z,75.05
2022-09-30T20:08:46.141Z,74.80
2022-09-30T20:11:17.218Z,75.01
2022-09-30T20:13:47.015Z,75.40
2022-09-30T20:16:18.001Z,75.22
2022-09-30T20:18:47.840Z,76.04
2022-09-30T20:21:19.118Z,75.05
2022-09-30T20:23:50.611Z,75.50
2022-09-30T20:26:20.585Z,75.67
2022-09-30T20:28:50.336Z,76.56
2022-09-30T20:31:22.736Z,77.96
2022-09-30T20:33:57.848Z,78.07
2022-09-30T20:36:29.278Z,78.68
2022-09-30T20:39:00.844Z,79.30
2022-09-30T20:41:35.892Z,79.33
2022-09-30T20:44:06.686Z,79.20
2022-09-30T20:46:40.117Z,79.35
2022-09-30T20:49:10.330Z,79.43
2022-09-30T20:51:41.094Z,78.91
2022-09-30T20:54:12.050Z,79.00
2022-09-30T20:57:05.958Z,78.76
2022-09-30T20:59:33.644Z,78.94
2022-09-30T21:02:07.087Z,79.29
2022-09-30T21:04:36.978Z,79.42
2022-09-30T21:07:06.880Z,79.24
2022-09-30T21:09:37.467Z,78.86
2022-09-30T21:12:12.210Z,78.75
2022-09-30T21:14:45.639Z,78.84
2022-09-30T21:17:18.080Z,78.30
2022-09-30T21:19:48.880Z,78.49
2022-09-30T21:22:18.656Z,78.16
2022-09-30T21:24:49.847Z,78.48
2022-09-30T21:27:20.737Z,78.66
2022-09-30T21:29:50.422Z,78.99
2022-09-30T21:32:23.137Z,79.12
2022-09-30T21:34:53.105Z,78.96
2022-09-30T21:37:23.870Z,78.68
2022-09-30T21:39:53.726Z,79.16
2022-09-30T21:42:24.616Z,78.89
2022-09-30T21:44:54.414Z,79.25
2022-09-30T21:47:27.789Z,79.13
2022-09-30T21:49:58.594Z,78.82
2022-09-30T21:52:32.666Z,78.90
2022-09-30T21:55:03.696Z,78.72
2022-09-30T21:57:33.398Z,78.51
2022-09-30T22:00:03.618Z,78.43
2022-09-30T22:02:46.336Z,78.67
2022-09-30T22:05:20.642Z,78.92
2022-09-30T22:07:50.976Z,78.54
2022-09-30T22:10:20.716Z,78.42
2022-09-30T22:12:51.147Z,78.14
2022-09-30T22:15:20.890Z,78.53
2022-09-30T22:17:53.200Z,78.32
2022-09-30T22:20:23.459Z,78.58
2022-09-30T22:22:53.169Z,78.51
2022-09-30T22:25:24.229Z,78.77
2022-09-30T22:27:54.088Z,78.94
2022-09-30T22:30:23.747Z,79.08
2022-09-30T22:33:16.574Z,78.75
2022-09-30T22:35:58.695Z,79.19
2022-09-30T22:38:28.696Z,79.23
2022-09-30T22:40:59.683Z,79.27
2022-09-30T22:43:29.712Z,79.75
2022-09-30T22:46:06.158Z,79.16
2022-09-30T22:48:38.764Z,78.87
2022-09-30T22:51:09.001Z,79.02
2022-09-30T22:53:38.744Z,78.70
2022-09-30T22:56:08.435Z,78.65
2022-09-30T22:58:38.831Z,79.04
2022-09-30T23:01:08.558Z,79.13
2022-09-30T23:03:42.247Z,78.46
2022-09-30T23:06:11.965Z,78.70
2022-09-30T23:08:45.473Z,78.65
2022-09-30T23:11:17.009Z,79.05
2022-09-30T23:13:46.860Z,78.88
2022-09-30T23:16:17.979Z,78.80
2022-09-30T23:18:50.711Z,78.74
2022-09-30T23:21:21.749Z,78.76
2022-09-30T23:23:51.692Z,79.09
2022-09-30T23:26:25.253Z,78.98
2022-09-30T23:28:58.687Z,78.61
2022-09-30T23:31:28.829Z,78.66
2022-09-30T23:34:03.075Z,78.40
2022-09-30T23:36:35.695Z,78.51
2022-09-30T23:39:09.215Z,78.67
2022-09-30T23:41:38.945Z,79.24
2022-09-30T23:44:09.737Z,78.53
2022-09-30T23:46:59.457Z,78.51
2022-09-30T23:49:35.422Z,78.55
2022-09-30T23:52:10.538Z,79.41
2022-09-30T23:54:42.799Z,79.08
2022-09-30T23:57:13.950Z,78.77
2022-09-30T23:59:43.623Z,79.13
